sensor_id;sensor_type;location;lat;lon;timestamp;P1;durP1;ratioP1;P2;durP2;ratioP2
41139;SDS011;26881;48.784;9.192;2023-05-07T00:00:42;5.72;;;4.75;;
41139;SDS011;26881;48.784;9.192;2023-05-07T00:06:04;7.80;;;5.18;;
41139;SDS011;26881;48.784;9.192;2023-05-07T00:11:27;6.72;;;5.40;;
41139;SDS011;26881;48.784;9.192;2023-05-07T00:16:49;7.18;;;5.10;;
41139;SDS011;26881;48.784;9.192;2023-05-07T00:22:11;6.15;;;4.43;;
41139;SDS011;26881;48.784;9.192;2023-05-07T00:27:33;8.20;;;4.18;;
41139;SDS011;26881;48.784;9.192;2023-05-07T00:32:55;7.88;;;4.40;;
41139;SDS011;26881;48.784;9.192;2023-05-07T00:38:16;6.95;;;4.80;;
41139;SDS011;26881;48.784;9.192;2023-05-07T00:43:38;7.05;;;4.40;;
41139;SDS011;26881;48.784;9.192;2023-05-07T00:49:00;7.97;;;4.40;;
41139;SDS011;26881;48.784;9.192;2023-05-07T00:54:22;5.32;;;4.60;;
41139;SDS011;26881;48.784;9.192;2023-05-07T00:59:44;6.80;;;4.40;;
41139;SDS011;26881;48.784;9.192;2023-05-07T01:05:07;8.05;;;4.80;;
41139;SDS011;26881;48.784;9.192;2023-05-07T01:10:31;4.50;;;4.05;;
41139;SDS011;26881;48.784;9.192;2023-05-07T01:15:53;5.30;;;4.30;;
41139;SDS011;26881;48.784;9.192;2023-05-07T01:21:15;7.53;;;3.95;;
41139;SDS011;26881;48.784;9.192;2023-05-07T01:26:39;5.70;;;3.83;;
41139;SDS011;26881;48.784;9.192;2023-05-07T01:32:01;4.40;;;3.58;;
41139;SDS011;26881;48.784;9.192;2023-05-07T01:37:24;5.18;;;4.00;;
41139;SDS011;26881;48.784;9.192;2023-05-07T01:42:47;4.47;;;3.92;;
41139;SDS011;26881;48.784;9.192;2023-05-07T01:48:10;4.45;;;3.67;;
41139;SDS011;26881;48.784;9.192;2023-05-07T01:53:36;5.05;;;3.80;;
41139;SDS011;26881;48.784;9.192;2023-05-07T01:58:58;3.63;;;3.17;;
41139;SDS011;26881;48.784;9.192;2023-05-07T02:04:20;7.47;;;4.40;;
41139;SDS011;26881;48.784;9.192;2023-05-07T02:09:42;5.05;;;3.88;;
41139;SDS011;26881;48.784;9.192;2023-05-07T02:15:04;6.57;;;4.05;;
41139;SDS011;26881;48.784;9.192;2023-05-07T02:20:26;7.20;;;4.03;;
41139;SDS011;26881;48.784;9.192;2023-05-07T02:25:48;7.75;;;5.75;;
41139;SDS011;26881;48.784;9.192;2023-05-07T02:31:10;7.63;;;4.00;;
41139;SDS011;26881;48.784;9.192;2023-05-07T02:36:32;7.45;;;3.50;;
41139;SDS011;26881;48.784;9.192;2023-05-07T02:41:54;6.07;;;3.58;;
41139;SDS011;26881;48.784;9.192;2023-05-07T02:47:15;5.82;;;3.42;;
41139;SDS011;26881;48.784;9.192;2023-05-07T02:52:37;5.07;;;3.50;;
41139;SDS011;26881;48.784;9.192;2023-05-07T02:57:59;5.80;;;4.00;;
41139;SDS011;26881;48.784;9.192;2023-05-07T03:03:20;5.00;;;3.60;;
41139;SDS011;26881;48.784;9.192;2023-05-07T03:08:42;6.80;;;3.83;;
41139;SDS011;26881;48.784;9.192;2023-05-07T03:14:04;7.38;;;3.70;;
41139;SDS011;26881;48.784;9.192;2023-05-07T03:19:26;5.97;;;3.88;;
41139;SDS011;26881;48.784;9.192;2023-05-07T03:24:48;9.20;;;4.03;;
41139;SDS011;26881;48.784;9.192;2023-05-07T03:30:10;4.72;;;3.75;;
41139;SDS011;26881;48.784;9.192;2023-05-07T03:35:32;6.60;;;4.25;;
41139;SDS011;26881;48.784;9.192;2023-05-07T03:40:54;6.75;;;4.50;;
41139;SDS011;26881;48.784;9.192;2023-05-07T03:46:16;6.20;;;4.43;;
41139;SDS011;26881;48.784;9.192;2023-05-07T03:51:38;5.43;;;3.90;;
41139;SDS011;26881;48.784;9.192;2023-05-07T03:56:59;6.70;;;4.32;;
41139;SDS011;26881;48.784;9.192;2023-05-07T04:02:21;9.48;;;4.32;;
41139;SDS011;26881;48.784;9.192;2023-05-07T04:07:43;8.88;;;4.95;;
41139;SDS011;26881;48.784;9.192;2023-05-07T04:13:05;5.30;;;4.40;;
41139;SDS011;26881;48.784;9.192;2023-05-07T04:18:27;7.53;;;5.00;;
41139;SDS011;26881;48.784;9.192;2023-05-07T04:23:49;10.10;;;4.50;;
41139;SDS011;26881;48.784;9.192;2023-05-07T04:29:11;6.43;;;4.40;;
41139;SDS011;26881;48.784;9.192;2023-05-07T04:34:33;6.20;;;4.07;;
41139;SDS011;26881;48.784;9.192;2023-05-07T04:39:55;4.93;;;4.13;;
41139;SDS011;26881;48.784;9.192;2023-05-07T04:45:17;9.82;;;4.65;;
41139;SDS011;26881;48.784;9.192;2023-05-07T04:50:38;5.90;;;4.28;;
41139;SDS011;26881;48.784;9.192;2023-05-07T04:56:00;8.45;;;3.97;;
41139;SDS011;26881;48.784;9.192;2023-05-07T05:01:22;7.25;;;3.90;;
41139;SDS011;26881;48.784;9.192;2023-05-07T05:06:44;8.35;;;4.50;;
41139;SDS011;26881;48.784;9.192;2023-05-07T05:12:06;5.13;;;4.28;;
41139;SDS011;26881;48.784;9.192;2023-05-07T05:17:28;7.38;;;4.95;;
41139;SDS011;26881;48.784;9.192;2023-05-07T05:22:50;10.18;;;4.45;;
41139;SDS011;26881;48.784;9.192;2023-05-07T05:28:12;6.05;;;4.50;;
41139;SDS011;26881;48.784;9.192;2023-05-07T05:33:33;8.77;;;4.85;;
41139;SDS011;26881;48.784;9.192;2023-05-07T05:38:55;6.13;;;5.20;;
41139;SDS011;26881;48.784;9.192;2023-05-07T05:44:17;8.52;;;5.13;;
41139;SDS011;26881;48.784;9.192;2023-05-07T05:49:39;5.88;;;4.93;;
41139;SDS011;26881;48.784;9.192;2023-05-07T05:55:01;9.40;;;5.53;;
41139;SDS011;26881;48.784;9.192;2023-05-07T06:00:22;6.50;;;5.90;;
41139;SDS011;26881;48.784;9.192;2023-05-07T06:05:44;6.72;;;5.07;;
41139;SDS011;26881;48.784;9.192;2023-05-07T06:11:06;5.82;;;5.22;;
41139;SDS011;26881;48.784;9.192;2023-05-07T06:16:28;7.70;;;5.30;;
41139;SDS011;26881;48.784;9.192;2023-05-07T06:21:50;6.40;;;5.50;;
41139;SDS011;26881;48.784;9.192;2023-05-07T06:27:12;6.95;;;5.63;;
41139;SDS011;26881;48.784;9.192;2023-05-07T06:32:34;8.50;;;5.53;;
41139;SDS011;26881;48.784;9.192;2023-05-07T06:37:55;7.95;;;6.47;;
41139;SDS011;26881;48.784;9.192;2023-05-07T06:43:17;6.97;;;5.97;;
41139;SDS011;26881;48.784;9.192;2023-05-07T06:48:39;9.18;;;5.72;;
41139;SDS011;26881;48.784;9.192;2023-05-07T06:54:00;6.18;;;5.07;;
41139;SDS011;26881;48.784;9.192;2023-05-07T06:59:23;9.23;;;5.57;;
41139;SDS011;26881;48.784;9.192;2023-05-07T07:04:45;5.82;;;5.20;;
41139;SDS011;26881;48.784;9.192;2023-05-07T07:10:07;7.60;;;5.60;;
41139;SDS011;26881;48.784;9.192;2023-05-07T07:15:29;5.65;;;5.05;;
41139;SDS011;26881;48.784;9.192;2023-05-07T07:20:51;5.63;;;4.43;;
41139;SDS011;26881;48.784;9.192;2023-05-07T07:26:13;7.10;;;5.07;;
41139;SDS011;26881;48.784;9.192;2023-05-07T07:31:34;6.05;;;4.50;;
41139;SDS011;26881;48.784;9.192;2023-05-07T07:36:56;8.10;;;5.65;;
41139;SDS011;26881;48.784;9.192;2023-05-07T07:42:18;5.63;;;4.10;;
41139;SDS011;26881;48.784;9.192;2023-05-07T07:47:40;7.25;;;4.20;;
41139;SDS011;26881;48.784;9.192;2023-05-07T07:53:02;5.95;;;3.63;;
41139;SDS011;26881;48.784;9.192;2023-05-07T07:58:23;5.45;;;3.60;;
41139;SDS011;26881;48.784;9.192;2023-05-07T08:03:46;5.45;;;3.35;;
41139;SDS011;26881;48.784;9.192;2023-05-07T08:09:08;4.65;;;2.92;;
41139;SDS011;26881;48.784;9.192;2023-05-07T08:14:30;6.18;;;3.05;;
41139;SDS011;26881;48.784;9.192;2023-05-07T08:19:52;5.30;;;2.50;;
41139;SDS011;26881;48.784;9.192;2023-05-07T08:25:13;3.20;;;2.90;;
41139;SDS011;26881;48.784;9.192;2023-05-07T08:30:35;10.00;;;3.10;;
41139;SDS011;26881;48.784;9.192;2023-05-07T08:35:57;3.33;;;2.35;;
41139;SDS011;26881;48.784;9.192;2023-05-07T08:41:18;4.80;;;2.67;;
41139;SDS011;26881;48.784;9.192;2023-05-07T08:46:41;4.32;;;2.95;;
41139;SDS011;26881;48.784;9.192;2023-05-07T08:52:05;3.35;;;2.50;;
41139;SDS011;26881;48.784;9.192;2023-05-07T08:57:30;2.83;;;2.38;;
41139;SDS011;26881;48.784;9.192;2023-05-07T09:02:52;5.45;;;2.78;;
41139;SDS011;26881;48.784;9.192;2023-05-07T09:08:14;7.95;;;2.30;;
41139;SDS011;26881;48.784;9.192;2023-05-07T09:13:37;4.43;;;2.30;;
41139;SDS011;26881;48.784;9.192;2023-05-07T09:18:59;2.40;;;2.00;;
41139;SDS011;26881;48.784;9.192;2023-05-07T09:24:22;3.22;;;2.13;;
41139;SDS011;26881;48.784;9.192;2023-05-07T09:29:44;3.70;;;2.42;;
41139;SDS011;26881;48.784;9.192;2023-05-07T09:35:08;3.60;;;1.80;;
41139;SDS011;26881;48.784;9.192;2023-05-07T09:40:37;2.47;;;1.60;;
41139;SDS011;26881;48.784;9.192;2023-05-07T09:45:59;3.67;;;2.08;;
41139;SDS011;26881;48.784;9.192;2023-05-07T09:51:47;2.35;;;2.15;;
41139;SDS011;26881;48.784;9.192;2023-05-07T09:57:11;3.05;;;2.30;;
41139;SDS011;26881;48.784;9.192;2023-05-07T10:02:34;5.80;;;1.88;;
41139;SDS011;26881;48.784;9.192;2023-05-07T10:07:57;2.60;;;1.90;;
41139;SDS011;26881;48.784;9.192;2023-05-07T10:13:20;3.08;;;2.30;;
41139;SDS011;26881;48.784;9.192;2023-05-07T10:18:42;5.65;;;1.90;;
41139;SDS011;26881;48.784;9.192;2023-05-07T10:24:06;3.00;;;1.92;;
41139;SDS011;26881;48.784;9.192;2023-05-07T10:35:03;2.80;;;1.75;;
41139;SDS011;26881;48.784;9.192;2023-05-07T10:40:28;2.40;;;1.92;;
41139;SDS011;26881;48.784;9.192;2023-05-07T10:51:31;2.38;;;1.90;;
41139;SDS011;26881;48.784;9.192;2023-05-07T10:56:57;5.20;;;1.50;;
41139;SDS011;26881;48.784;9.192;2023-05-07T11:03:04;3.45;;;2.00;;
41139;SDS011;26881;48.784;9.192;2023-05-07T11:08:51;2.63;;;1.92;;
41139;SDS011;26881;48.784;9.192;2023-05-07T11:20:01;4.18;;;1.95;;
41139;SDS011;26881;48.784;9.192;2023-05-07T11:25:24;2.67;;;1.80;;
41139;SDS011;26881;48.784;9.192;2023-05-07T11:30:46;3.67;;;1.98;;
41139;SDS011;26881;48.784;9.192;2023-05-07T11:36:08;2.25;;;1.90;;
41139;SDS011;26881;48.784;9.192;2023-05-07T11:41:34;2.35;;;2.03;;
41139;SDS011;26881;48.784;9.192;2023-05-07T11:47:01;1.92;;;1.83;;
41139;SDS011;26881;48.784;9.192;2023-05-07T11:52:23;3.30;;;2.20;;
41139;SDS011;26881;48.784;9.192;2023-05-07T11:57:46;3.50;;;1.70;;
41139;SDS011;26881;48.784;9.192;2023-05-07T12:03:08;2.38;;;1.80;;
41139;SDS011;26881;48.784;9.192;2023-05-07T12:08:30;2.65;;;1.90;;
41139;SDS011;26881;48.784;9.192;2023-05-07T12:13:53;3.33;;;1.70;;
41139;SDS011;26881;48.784;9.192;2023-05-07T12:19:20;5.22;;;2.20;;
41139;SDS011;26881;48.784;9.192;2023-05-07T12:24:49;6.43;;;2.10;;
41139;SDS011;26881;48.784;9.192;2023-05-07T12:30:17;12.43;;;4.15;;
41139;SDS011;26881;48.784;9.192;2023-05-07T12:35:40;11.13;;;4.00;;
41139;SDS011;26881;48.784;9.192;2023-05-07T12:41:04;10.50;;;3.15;;
41139;SDS011;26881;48.784;9.192;2023-05-07T12:46:28;8.02;;;3.45;;
41139;SDS011;26881;48.784;9.192;2023-05-07T12:51:50;6.88;;;3.70;;
41139;SDS011;26881;48.784;9.192;2023-05-07T12:57:12;7.10;;;3.45;;
41139;SDS011;26881;48.784;9.192;2023-05-07T13:02:34;4.72;;;1.60;;
41139;SDS011;26881;48.784;9.192;2023-05-07T13:07:59;11.65;;;2.42;;
41139;SDS011;26881;48.784;9.192;2023-05-07T13:13:21;9.43;;;2.28;;
41139;SDS011;26881;48.784;9.192;2023-05-07T13:18:43;7.30;;;2.10;;
41139;SDS011;26881;48.784;9.192;2023-05-07T13:24:07;8.95;;;2.20;;
41139;SDS011;26881;48.784;9.192;2023-05-07T13:29:29;14.82;;;2.60;;
41139;SDS011;26881;48.784;9.192;2023-05-07T13:34:51;5.40;;;2.40;;
41139;SDS011;26881;48.784;9.192;2023-05-07T13:40:13;6.10;;;2.80;;
41139;SDS011;26881;48.784;9.192;2023-05-07T13:45:35;3.55;;;2.03;;
41139;SDS011;26881;48.784;9.192;2023-05-07T13:50:57;4.18;;;1.85;;
41139;SDS011;26881;48.784;9.192;2023-05-07T13:56:18;5.22;;;1.80;;
41139;SDS011;26881;48.784;9.192;2023-05-07T14:01:41;5.07;;;1.52;;
41139;SDS011;26881;48.784;9.192;2023-05-07T14:07:03;3.83;;;1.42;;
41139;SDS011;26881;48.784;9.192;2023-05-07T14:12:25;4.70;;;1.90;;
41139;SDS011;26881;48.784;9.192;2023-05-07T14:17:46;4.38;;;1.60;;
41139;SDS011;26881;48.784;9.192;2023-05-07T14:23:08;3.55;;;2.00;;
41139;SDS011;26881;48.784;9.192;2023-05-07T14:28:31;4.97;;;1.85;;
41139;SDS011;26881;48.784;9.192;2023-05-07T14:33:52;6.50;;;2.60;;
41139;SDS011;26881;48.784;9.192;2023-05-07T14:39:14;4.28;;;2.55;;
41139;SDS011;26881;48.784;9.192;2023-05-07T14:44:36;4.53;;;1.98;;
41139;SDS011;26881;48.784;9.192;2023-05-07T14:49:58;5.38;;;2.42;;
41139;SDS011;26881;48.784;9.192;2023-05-07T14:55:22;6.53;;;3.30;;
41139;SDS011;26881;48.784;9.192;2023-05-07T15:00:44;6.07;;;2.78;;
41139;SDS011;26881;48.784;9.192;2023-05-07T15:06:06;7.43;;;3.60;;
41139;SDS011;26881;48.784;9.192;2023-05-07T15:11:28;8.88;;;4.95;;
41139;SDS011;26881;48.784;9.192;2023-05-07T15:16:50;9.13;;;3.78;;
41139;SDS011;26881;48.784;9.192;2023-05-07T15:22:11;4.82;;;3.17;;
41139;SDS011;26881;48.784;9.192;2023-05-07T15:27:33;5.63;;;4.30;;
41139;SDS011;26881;48.784;9.192;2023-05-07T15:32:55;6.18;;;3.47;;
41139;SDS011;26881;48.784;9.192;2023-05-07T15:38:17;5.05;;;4.00;;
41139;SDS011;26881;48.784;9.192;2023-05-07T15:43:43;2.65;;;2.45;;
41139;SDS011;26881;48.784;9.192;2023-05-07T15:49:07;3.25;;;2.60;;
41139;SDS011;26881;48.784;9.192;2023-05-07T15:54:29;5.13;;;3.10;;
41139;SDS011;26881;48.784;9.192;2023-05-07T15:59:51;4.32;;;3.42;;
41139;SDS011;26881;48.784;9.192;2023-05-07T16:05:13;5.53;;;3.30;;
41139;SDS011;26881;48.784;9.192;2023-05-07T16:10:35;3.92;;;3.53;;
41139;SDS011;26881;48.784;9.192;2023-05-07T16:15:58;4.47;;;3.15;;
41139;SDS011;26881;48.784;9.192;2023-05-07T16:21:20;3.67;;;3.25;;
41139;SDS011;26881;48.784;9.192;2023-05-07T16:26:41;4.72;;;3.33;;
41139;SDS011;26881;48.784;9.192;2023-05-07T16:32:03;5.95;;;3.50;;
41139;SDS011;26881;48.784;9.192;2023-05-07T16:37:25;6.30;;;4.03;;
41139;SDS011;26881;48.784;9.192;2023-05-07T16:42:47;5.40;;;3.67;;
41139;SDS011;26881;48.784;9.192;2023-05-07T16:48:09;5.45;;;3.67;;
41139;SDS011;26881;48.784;9.192;2023-05-07T16:53:31;9.05;;;4.40;;
41139;SDS011;26881;48.784;9.192;2023-05-07T16:58:54;7.10;;;4.38;;
41139;SDS011;26881;48.784;9.192;2023-05-07T17:04:16;4.35;;;3.75;;
41139;SDS011;26881;48.784;9.192;2023-05-07T17:09:37;6.18;;;3.60;;
41139;SDS011;26881;48.784;9.192;2023-05-07T17:14:59;5.93;;;4.28;;
41139;SDS011;26881;48.784;9.192;2023-05-07T17:20:22;8.02;;;5.15;;
41139;SDS011;26881;48.784;9.192;2023-05-07T17:25:43;5.68;;;5.15;;
41139;SDS011;26881;48.784;9.192;2023-05-07T17:31:06;7.18;;;5.60;;
41139;SDS011;26881;48.784;9.192;2023-05-07T17:36:28;4.90;;;4.32;;
41139;SDS011;26881;48.784;9.192;2023-05-07T17:41:49;4.97;;;4.45;;
41139;SDS011;26881;48.784;9.192;2023-05-07T17:47:11;4.40;;;4.00;;
41139;SDS011;26881;48.784;9.192;2023-05-07T17:52:34;7.60;;;4.85;;
41139;SDS011;26881;48.784;9.192;2023-05-07T17:57:57;5.68;;;4.40;;
41139;SDS011;26881;48.784;9.192;2023-05-07T18:03:18;5.30;;;4.10;;
41139;SDS011;26881;48.784;9.192;2023-05-07T18:08:41;4.95;;;3.97;;
41139;SDS011;26881;48.784;9.192;2023-05-07T18:14:02;6.57;;;4.45;;
41139;SDS011;26881;48.784;9.192;2023-05-07T18:19:24;7.78;;;5.03;;
41139;SDS011;26881;48.784;9.192;2023-05-07T18:24:47;7.50;;;5.07;;
41139;SDS011;26881;48.784;9.192;2023-05-07T18:30:10;5.45;;;3.83;;
41139;SDS011;26881;48.784;9.192;2023-05-07T18:35:32;6.15;;;4.40;;
41139;SDS011;26881;48.784;9.192;2023-05-07T18:41:01;5.30;;;4.80;;
41139;SDS011;26881;48.784;9.192;2023-05-07T18:46:24;7.07;;;4.68;;
41139;SDS011;26881;48.784;9.192;2023-05-07T18:51:46;8.07;;;5.32;;
41139;SDS011;26881;48.784;9.192;2023-05-07T18:57:07;6.63;;;4.65;;
41139;SDS011;26881;48.784;9.192;2023-05-07T19:02:29;7.55;;;6.53;;
41139;SDS011;26881;48.784;9.192;2023-05-07T19:07:51;5.10;;;4.55;;
41139;SDS011;26881;48.784;9.192;2023-05-07T19:13:13;5.88;;;4.45;;
41139;SDS011;26881;48.784;9.192;2023-05-07T19:18:35;6.90;;;5.20;;
41139;SDS011;26881;48.784;9.192;2023-05-07T19:23:57;6.88;;;5.20;;
41139;SDS011;26881;48.784;9.192;2023-05-07T19:29:19;8.57;;;4.93;;
41139;SDS011;26881;48.784;9.192;2023-05-07T19:34:40;9.13;;;5.20;;
41139;SDS011;26881;48.784;9.192;2023-05-07T19:40:02;9.75;;;6.93;;
41139;SDS011;26881;48.784;9.192;2023-05-07T19:45:26;9.38;;;7.13;;
41139;SDS011;26881;48.784;9.192;2023-05-07T19:50:48;9.95;;;7.40;;
41139;SDS011;26881;48.784;9.192;2023-05-07T19:56:11;8.88;;;6.18;;
41139;SDS011;26881;48.784;9.192;2023-05-07T20:01:33;8.93;;;6.43;;
41139;SDS011;26881;48.784;9.192;2023-05-07T20:06:55;11.65;;;6.38;;
41139;SDS011;26881;48.784;9.192;2023-05-07T20:12:18;8.40;;;6.43;;
41139;SDS011;26881;48.784;9.192;2023-05-07T20:17:41;7.40;;;6.43;;
41139;SDS011;26881;48.784;9.192;2023-05-07T20:23:03;7.65;;;6.50;;
41139;SDS011;26881;48.784;9.192;2023-05-07T20:28:25;7.78;;;5.93;;
41139;SDS011;26881;48.784;9.192;2023-05-07T20:33:47;10.77;;;6.05;;
41139;SDS011;26881;48.784;9.192;2023-05-07T20:39:09;7.45;;;6.38;;
41139;SDS011;26881;48.784;9.192;2023-05-07T20:44:35;7.95;;;7.15;;
41139;SDS011;26881;48.784;9.192;2023-05-07T20:49:56;7.50;;;6.60;;
41139;SDS011;26881;48.784;9.192;2023-05-07T20:55:18;8.45;;;7.00;;
41139;SDS011;26881;48.784;9.192;2023-05-07T21:00:40;8.48;;;7.40;;
41139;SDS011;26881;48.784;9.192;2023-05-07T21:06:01;8.52;;;7.35;;
41139;SDS011;26881;48.784;9.192;2023-05-07T21:11:24;12.45;;;7.78;;
41139;SDS011;26881;48.784;9.192;2023-05-07T21:16:46;9.73;;;8.38;;
41139;SDS011;26881;48.784;9.192;2023-05-07T21:22:08;14.13;;;11.02;;
41139;SDS011;26881;48.784;9.192;2023-05-07T21:27:29;12.13;;;10.90;;
41139;SDS011;26881;48.784;9.192;2023-05-07T21:32:51;11.55;;;9.45;;
41139;SDS011;26881;48.784;9.192;2023-05-07T21:38:15;11.05;;;9.95;;
41139;SDS011;26881;48.784;9.192;2023-05-07T21:43:39;10.95;;;9.90;;
41139;SDS011;26881;48.784;9.192;2023-05-07T21:49:01;12.63;;;9.50;;
41139;SDS011;26881;48.784;9.192;2023-05-07T21:54:22;13.77;;;10.30;;
41139;SDS011;26881;48.784;9.192;2023-05-07T21:59:44;11.90;;;9.88;;
41139;SDS011;26881;48.784;9.192;2023-05-07T22:05:06;9.75;;;8.85;;
41139;SDS011;26881;48.784;9.192;2023-05-07T22:10:28;14.98;;;9.23;;
41139;SDS011;26881;48.784;9.192;2023-05-07T22:15:50;10.55;;;8.65;;
41139;SDS011;26881;48.784;9.192;2023-05-07T22:21:18;10.60;;;9.50;;
41139;SDS011;26881;48.784;9.192;2023-05-07T22:26:41;11.00;;;10.02;;
41139;SDS011;26881;48.784;9.192;2023-05-07T22:32:02;11.52;;;9.65;;
41139;SDS011;26881;48.784;9.192;2023-05-07T22:37:24;10.88;;;9.88;;
41139;SDS011;26881;48.784;9.192;2023-05-07T22:42:47;11.40;;;10.30;;
41139;SDS011;26881;48.784;9.192;2023-05-07T22:48:09;11.93;;;10.75;;
41139;SDS011;26881;48.784;9.192;2023-05-07T22:53:30;13.02;;;11.05;;
41139;SDS011;26881;48.784;9.192;2023-05-07T22:58:52;12.13;;;10.82;;
41139;SDS011;26881;48.784;9.192;2023-05-07T23:04:14;11.15;;;9.95;;
41139;SDS011;26881;48.784;9.192;2023-05-07T23:09:36;11.35;;;10.18;;
41139;SDS011;26881;48.784;9.192;2023-05-07T23:14:57;11.85;;;9.75;;
41139;SDS011;26881;48.784;9.192;2023-05-07T23:20:19;15.27;;;10.40;;
41139;SDS011;26881;48.784;9.192;2023-05-07T23:25:41;13.70;;;9.73;;
41139;SDS011;26881;48.784;9.192;2023-05-07T23:31:05;12.60;;;10.50;;
41139;SDS011;26881;48.784;9.192;2023-05-07T23:36:27;11.52;;;10.35;;
41139;SDS011;26881;48.784;9.192;2023-05-07T23:41:49;12.73;;;11.40;;
41139;SDS011;26881;48.784;9.192;2023-05-07T23:47:11;14.63;;;11.77;;
41139;SDS011;26881;48.784;9.192;2023-05-07T23:52:32;13.68;;;12.07;;
41139;SDS011;26881;48.784;9.192;2023-05-07T23:57:54;13.45;;;12.25;;
